44WI weather

Stoiber Airport
Spencer, Wisconsin, United States

Public forecast

Using degrees Fahrenheit for public forecast. Weather courtesy of forecast.io.

Closest aviation weather report (METAR) to Stoiber Airport

Closest report is Marshfield Municipal Airport, 11.7 nm (21.6 km) SE. Retrieved 2020/02/22 04:54 UTC (33 minutes ago):

KMFI 220454Z AUTO 23010KT 10SM CLR M03/M08 A3008 RMK AO2 SLP203 T10281078

Closest aviation forecast (TAF) to Stoiber Airport

Closest forecast is Central Wisconsin Airport, 30.6 nm (56.7 km) E. Retrieved 2020-02-22 00:27 UTC (5 hours ago):

TAF KCWA 212325Z 2200/2224 24012G20KT P6SM SKC WS020/26040KT FM220400 24008KT P6SM SKC WS016/27035KT FM220700 24006KT P6SM SKC AMD LTD TO CLD VIS AND WIND 2204/2212